createdAt,value
2023-04-17T03:59:11.211Z,1019.17
2023-04-17T04:00:11.389Z,1019.18
2023-04-17T04:01:10.673Z,1019.18
2023-04-17T04:02:10.717Z,1019.18
2023-04-17T04:03:10.882Z,1019.19
2023-04-17T04:04:10.885Z,1019.17
2023-04-17T04:05:10.651Z,1019.22
2023-04-17T04:06:10.615Z,1019.20
2023-04-17T04:07:10.593Z,1019.27
2023-04-17T04:08:10.582Z,1019.24
2023-04-17T04:09:10.870Z,1019.26
2023-04-17T04:10:10.577Z,1019.26
2023-04-17T04:11:10.552Z,1019.25
2023-04-17T04:12:10.561Z,1019.28
2023-04-17T04:13:10.566Z,1019.28
2023-04-17T04:14:10.545Z,1019.25
2023-04-17T04:15:10.576Z,1019.25
2023-04-17T04:16:10.600Z,1019.27
2023-04-17T04:17:10.567Z,1019.30
2023-04-17T04:18:10.558Z,1019.33
2023-04-17T04:19:10.786Z,1019.28
2023-04-17T04:20:10.550Z,1019.30
2023-04-17T04:21:10.520Z,1019.34
2023-04-17T04:22:10.525Z,1019.35
2023-04-17T04:23:10.504Z,1019.33
2023-04-17T04:24:10.566Z,1019.34
2023-04-17T04:25:10.506Z,1019.35
2023-04-17T04:26:10.507Z,1019.32
2023-04-17T04:27:10.568Z,1019.36
2023-04-17T04:28:10.642Z,1019.35
2023-04-17T04:29:10.683Z,1019.37
2023-04-17T04:30:10.500Z,1019.38
2023-04-17T04:31:10.524Z,1019.39
2023-04-17T04:32:10.541Z,1019.37
2023-04-17T04:33:10.466Z,1019.39
2023-04-17T04:34:10.451Z,1019.39
2023-04-17T04:35:10.489Z,1019.35
2023-04-17T04:36:10.473Z,1019.39
2023-04-17T04:37:10.473Z,1019.37
2023-04-17T04:38:11.660Z,1019.39
2023-04-17T04:39:10.693Z,1019.38
2023-04-17T04:40:10.514Z,1019.39
2023-04-17T04:41:10.541Z,1019.36
2023-04-17T04:42:10.488Z,1019.37
2023-04-17T04:43:10.428Z,1019.38
2023-04-17T04:44:10.425Z,1019.38
2023-04-17T04:45:10.459Z,1019.37
2023-04-17T04:46:10.468Z,1019.34
2023-04-17T04:47:10.443Z,1019.40
2023-04-17T04:48:10.403Z,1019.39
2023-04-17T04:49:10.657Z,1019.40
2023-04-17T04:50:10.414Z,1019.43
2023-04-17T04:51:10.406Z,1019.42
2023-04-17T04:52:10.383Z,1019.43
2023-04-17T04:53:10.378Z,1019.41
2023-04-17T04:54:10.381Z,1019.47
2023-04-17T04:55:10.388Z,1019.44
2023-04-17T04:56:10.442Z,1019.46
2023-04-17T04:57:10.383Z,1019.45
2023-04-17T04:58:10.371Z,1019.46
2023-04-17T04:59:10.623Z,1019.46
2023-04-17T05:00:10.364Z,1019.48
2023-04-17T05:01:10.521Z,1019.51
2023-04-17T05:02:10.419Z,1019.53
2023-04-17T05:03:10.550Z,1019.53
2023-04-17T05:04:10.605Z,1019.53
2023-04-17T05:05:10.361Z,1019.56
2023-04-17T05:06:10.369Z,1019.58
2023-04-17T05:07:10.372Z,1019.60
2023-04-17T05:08:10.337Z,1019.61
2023-04-17T05:09:10.606Z,1019.64
2023-04-17T05:10:10.325Z,1019.63
2023-04-17T05:11:10.336Z,1019.68
2023-04-17T05:12:10.331Z,1019.67
2023-04-17T05:13:10.307Z,1019.70
2023-04-17T05:14:10.316Z,1019.67
2023-04-17T05:15:10.308Z,1019.72
2023-04-17T05:16:10.373Z,1019.73
2023-04-17T05:17:10.323Z,1019.75
2023-04-17T05:18:10.333Z,1019.80
2023-04-17T05:19:10.580Z,1019.75
2023-04-17T05:20:10.283Z,1019.77
2023-04-17T05:21:10.314Z,1019.78
2023-04-17T05:22:10.276Z,1019.78
2023-04-17T05:23:10.291Z,1019.78
2023-04-17T05:24:10.328Z,1019.79
2023-04-17T05:25:10.278Z,1019.82
2023-04-17T05:26:10.479Z,1019.81
2023-04-17T05:27:10.286Z,1019.79
2023-04-17T05:28:10.300Z,1019.80
2023-04-17T05:29:10.353Z,1019.81
2023-04-17T05:30:10.249Z,1019.81
2023-04-17T05:31:10.518Z,1019.81
2023-04-17T05:32:10.364Z,1019.84
2023-04-17T05:33:10.285Z,1019.87
2023-04-17T05:34:10.241Z,1019.85
2023-04-17T05:35:10.238Z,1019.87
2023-04-17T05:36:10.521Z,1019.87
2023-04-17T05:37:10.343Z,1019.87
2023-04-17T05:38:10.253Z,1019.88
2023-04-17T05:39:10.573Z,1019.91
2023-04-17T05:40:10.223Z,1019.90
2023-04-17T05:41:10.234Z,1019.90
2023-04-17T05:42:10.240Z,1019.90
2023-04-17T05:43:10.203Z,1019.89
2023-04-17T05:44:10.240Z,1019.94
2023-04-17T05:45:10.290Z,1019.92
2023-04-17T05:46:10.258Z,1019.94
2023-04-17T05:47:10.307Z,1019.94
2023-04-17T05:48:10.208Z,1019.94
2023-04-17T05:49:10.369Z,1019.97
2023-04-17T05:50:10.196Z,1019.91
2023-04-17T05:51:10.206Z,1019.96
2023-04-17T05:52:10.262Z,1019.93
2023-04-17T05:53:10.168Z,1019.94
2023-04-17T05:54:10.178Z,1019.97
2023-04-17T05:55:10.164Z,1019.98
2023-04-17T05:56:10.199Z,1019.99
2023-04-17T05:57:10.372Z,1020.01
2023-04-17T05:58:23.079Z,1019.97
2023-04-17T05:59:13.049Z,1020.03
2023-04-17T06:00:10.219Z,1020.01
2023-04-17T06:01:10.144Z,1020.03
2023-04-17T06:02:10.271Z,1020.03
2023-04-17T06:03:10.332Z,1020.06
2023-04-17T06:04:10.400Z,1020.08
2023-04-17T06:05:10.356Z,1020.08
2023-04-17T06:06:10.140Z,1020.08
2023-04-17T06:07:11.032Z,1020.08
2023-04-17T06:08:10.135Z,1020.05
2023-04-17T06:09:10.529Z,1020.08
2023-04-17T06:10:10.249Z,1020.08
2023-04-17T06:11:10.140Z,1020.10
2023-04-17T06:12:10.104Z,1020.13
2023-04-17T06:13:10.271Z,1020.11
2023-04-17T06:14:10.169Z,1020.11
2023-04-17T06:15:10.110Z,1020.10
2023-04-17T06:16:11.014Z,1020.11
2023-04-17T06:17:10.215Z,1020.12
2023-04-17T06:18:11.031Z,1020.12
2023-04-17T06:19:10.296Z,1020.15
2023-04-17T06:20:10.111Z,1020.15
2023-04-17T06:21:10.135Z,1020.12
2023-04-17T06:22:10.101Z,1020.14
2023-04-17T06:23:10.072Z,1020.16
2023-04-17T06:24:10.058Z,1020.11
2023-04-17T06:25:10.091Z,1020.18
2023-04-17T06:26:10.071Z,1020.19
2023-04-17T06:27:10.084Z,1020.25
2023-04-17T06:28:10.369Z,1020.20
2023-04-17T06:30:42.655Z,1020.29
2023-04-17T06:31:42.621Z,1020.28
2023-04-17T06:32:42.709Z,1020.31
2023-04-17T06:33:42.660Z,1020.29
2023-04-17T06:34:58.151Z,1020.33
2023-04-17T06:35:42.631Z,1020.35
2023-04-17T06:36:42.571Z,1020.34
2023-04-17T06:37:42.658Z,1020.35
2023-04-17T06:38:42.666Z,1020.36
2023-04-17T06:39:42.604Z,1020.37
2023-04-17T06:40:42.573Z,1020.39
2023-04-17T06:41:42.566Z,1020.37
2023-04-17T06:42:42.541Z,1020.44
2023-04-17T06:44:42.640Z,1020.45
2023-04-17T06:45:42.544Z,1020.45
2023-04-17T06:46:42.627Z,1020.45
2023-04-17T06:47:42.632Z,1020.45
2023-04-17T06:48:42.558Z,1020.45
2023-04-17T06:49:42.641Z,1020.46
2023-04-17T06:50:42.585Z,1020.45
2023-04-17T06:51:42.534Z,1020.48
2023-04-17T06:52:42.611Z,1020.46
2023-04-17T06:53:42.584Z,1020.48
2023-04-17T06:54:42.515Z,1020.48
2023-04-17T06:55:42.566Z,1020.52
2023-04-17T06:56:42.530Z,1020.52
2023-04-17T06:57:42.499Z,1020.55
2023-04-17T06:58:42.664Z,1020.58
2023-04-17T06:59:42.545Z,1020.58
2023-04-17T07:00:42.540Z,1020.55
2023-04-17T07:01:42.613Z,1020.60
2023-04-17T07:02:42.633Z,1020.55
2023-04-17T07:03:42.788Z,1020.58
2023-04-17T07:04:42.605Z,1020.56
2023-04-17T07:05:44.240Z,1020.58
2023-04-17T07:06:42.477Z,1020.58
2023-04-17T07:07:42.537Z,1020.57
2023-04-17T07:08:42.506Z,1020.59
2023-04-17T07:09:42.490Z,1020.61
2023-04-17T07:10:42.526Z,1020.60
2023-04-17T07:11:42.451Z,1020.60
2023-04-17T07:12:42.464Z,1020.64
2023-04-17T07:13:42.435Z,1020.63
2023-04-17T07:14:42.478Z,1020.61
2023-04-17T07:15:42.596Z,1020.60
2023-04-17T07:16:42.982Z,1020.64
2023-04-17T07:17:42.492Z,1020.66
2023-04-17T07:18:42.433Z,1020.67
2023-04-17T07:19:42.485Z,1020.66
2023-04-17T07:20:42.550Z,1020.66
2023-04-17T07:21:42.464Z,1020.66
2023-04-17T07:22:42.428Z,1020.63
2023-04-17T07:23:42.470Z,1020.68
2023-04-17T07:24:42.412Z,1020.65
2023-04-17T07:25:42.970Z,1020.68
2023-04-17T07:26:42.433Z,1020.69
2023-04-17T07:27:42.415Z,1020.68
2023-04-17T07:28:42.402Z,1020.66
2023-04-17T07:29:42.515Z,1020.66
2023-04-17T07:30:42.537Z,1020.66
2023-04-17T07:31:42.484Z,1020.68
2023-04-17T07:32:42.484Z,1020.67
2023-04-17T07:33:42.464Z,1020.67
2023-04-17T07:34:42.418Z,1020.71
2023-04-17T07:35:42.522Z,1020.68
2023-04-17T07:36:42.372Z,1020.69
2023-04-17T07:37:42.564Z,1020.74
2023-04-17T07:38:42.465Z,1020.72
2023-04-17T07:39:42.419Z,1020.69
2023-04-17T07:40:42.375Z,1020.71
2023-04-17T07:41:42.457Z,1020.69
2023-04-17T07:42:42.422Z,1020.67
2023-04-17T07:43:42.405Z,1020.64
2023-04-17T07:44:42.378Z,1020.66
2023-04-17T07:45:42.401Z,1020.66
2023-04-17T07:46:42.453Z,1020.65
2023-04-17T07:47:42.469Z,1020.67
2023-04-17T07:48:42.356Z,1020.68
2023-04-17T07:49:42.423Z,1020.65
2023-04-17T07:50:42.350Z,1020.67
2023-04-17T07:51:42.369Z,1020.68
2023-04-17T07:52:42.471Z,1020.72
2023-04-17T07:53:42.372Z,1020.73
2023-04-17T07:54:43.281Z,1020.70
2023-04-17T07:55:42.346Z,1020.71
2023-04-17T07:56:42.575Z,1020.71
2023-04-17T07:57:42.359Z,1020.73
2023-04-17T07:58:42.358Z,1020.71
2023-04-17T07:59:42.372Z,1020.78
2023-04-17T08:00:42.451Z,1020.71
2023-04-17T08:01:42.414Z,1020.75
2023-04-17T08:02:42.583Z,1020.74
2023-04-17T08:03:42.564Z,1020.79
2023-04-17T08:04:42.383Z,1020.76
2023-04-17T08:05:42.335Z,1020.79
2023-04-17T08:06:42.316Z,1020.78
2023-04-17T08:07:42.363Z,1020.80
2023-04-17T08:08:42.338Z,1020.83
2023-04-17T08:09:44.021Z,1020.81
2023-04-17T08:10:42.334Z,1020.82
2023-04-17T08:11:55.694Z,1020.87
2023-04-17T08:12:42.311Z,1020.82
2023-04-17T08:13:42.360Z,1020.83
2023-04-17T08:14:42.496Z,1020.83
2023-04-17T08:15:42.307Z,1020.86
2023-04-17T08:16:42.353Z,1020.86
2023-04-17T08:17:42.339Z,1020.90
2023-04-17T08:18:42.358Z,1020.93
2023-04-17T08:19:42.318Z,1020.96
2023-04-17T08:20:42.289Z,1020.95
2023-04-17T08:21:42.322Z,1020.92
2023-04-17T08:22:42.296Z,1020.98
2023-04-17T08:23:42.453Z,1020.97
2023-04-17T08:24:42.449Z,1020.95
2023-04-17T08:25:42.291Z,1021.01
2023-04-17T08:26:42.299Z,1020.97
2023-04-17T08:27:42.281Z,1020.98
2023-04-17T08:28:42.567Z,1021.01
2023-04-17T08:29:42.325Z,1021.06
2023-04-17T08:30:42.516Z,1021.08
2023-04-17T08:31:42.277Z,1021.09
2023-04-17T08:32:42.387Z,1021.09
2023-04-17T08:33:42.330Z,1021.06
2023-04-17T08:34:42.334Z,1021.11
2023-04-17T08:35:42.426Z,1021.14
2023-04-17T08:36:42.262Z,1021.14
2023-04-17T08:37:42.346Z,1021.20
2023-04-17T08:38:42.448Z,1021.14
2023-04-17T08:39:42.299Z,1021.18
2023-04-17T08:40:42.257Z,1021.15
2023-04-17T08:41:42.410Z,1021.16
2023-04-17T08:42:42.611Z,1021.15
2023-04-17T08:43:42.251Z,1021.19
2023-04-17T08:44:42.558Z,1021.16
2023-04-17T08:45:42.562Z,1021.19
2023-04-17T08:46:42.525Z,1021.22
2023-04-17T08:48:42.264Z,1021.19
2023-04-17T08:49:43.760Z,1021.19
2023-04-17T08:50:42.359Z,1021.22
2023-04-17T08:51:42.396Z,1021.18
2023-04-17T08:52:42.411Z,1021.20
2023-04-17T08:53:42.248Z,1021.19
2023-04-17T08:54:42.242Z,1021.18
2023-04-17T08:55:42.277Z,1021.19
2023-04-17T08:56:42.274Z,1021.17
2023-04-17T08:57:42.260Z,1021.18
2023-04-17T08:58:42.359Z,1021.19
2023-04-17T08:59:42.303Z,1021.18
2023-04-17T09:00:42.269Z,1021.19
2023-04-17T09:01:42.487Z,1021.21
2023-04-17T09:02:42.583Z,1021.20
2023-04-17T09:03:42.451Z,1021.20
2023-04-17T09:04:42.633Z,1021.18
2023-04-17T09:05:42.405Z,1021.19
2023-04-17T09:06:42.543Z,1021.24
2023-04-17T09:11:47.371Z,1021.19
2023-04-17T09:12:47.360Z,1021.23
2023-04-17T09:13:47.364Z,1021.18
2023-04-17T09:14:50.467Z,1021.21
2023-04-17T09:15:47.476Z,1021.16
2023-04-17T09:16:47.500Z,1021.20
2023-04-17T09:17:47.442Z,1021.19
2023-04-17T09:18:47.371Z,1021.20
2023-04-17T09:19:47.517Z,1021.22
2023-04-17T09:20:47.539Z,1021.17
2023-04-17T09:21:47.500Z,1021.15
2023-04-17T09:22:48.374Z,1021.16
2023-04-17T09:23:47.372Z,1021.11
2023-04-17T09:24:47.427Z,1021.12
2023-04-17T09:25:47.473Z,1021.15
2023-04-17T09:26:48.479Z,1021.15
2023-04-17T09:27:47.394Z,1021.14
2023-04-17T09:28:47.390Z,1021.13
2023-04-17T09:29:47.610Z,1021.10
2023-04-17T09:30:47.377Z,1021.14
2023-04-17T09:31:47.422Z,1021.11
2023-04-17T09:32:47.375Z,1021.13
2023-04-17T09:33:47.392Z,1021.13
2023-04-17T09:34:48.166Z,1021.15
2023-04-17T09:35:47.362Z,1021.13
2023-04-17T09:36:47.398Z,1021.16
2023-04-17T09:37:47.349Z,1021.13
2023-04-17T09:38:47.429Z,1021.16
2023-04-17T09:39:47.375Z,1021.14
2023-04-17T09:40:47.403Z,1021.13
2023-04-17T09:41:47.426Z,1021.14
2023-04-17T09:42:47.386Z,1021.14
2023-04-17T09:43:47.359Z,1021.15
2023-04-17T09:44:47.471Z,1021.16
2023-04-17T09:45:47.374Z,1021.16
2023-04-17T09:46:47.661Z,1021.14
2023-04-17T09:47:47.577Z,1021.19
2023-04-17T09:48:47.371Z,1021.16
2023-04-17T09:49:47.366Z,1021.17
2023-04-17T09:50:47.359Z,1021.17
2023-04-17T09:51:47.465Z,1021.15
2023-04-17T09:52:47.348Z,1021.20
2023-04-17T09:53:47.556Z,1021.19
2023-04-17T09:54:47.348Z,1021.19
2023-04-17T09:55:47.367Z,1021.21
2023-04-17T09:57:47.388Z,1021.16
2023-04-17T09:58:47.346Z,1021.16
2023-04-17T09:59:47.388Z,1021.15
2023-04-17T10:00:47.400Z,1021.17
2023-04-17T10:01:47.403Z,1021.16
2023-04-17T10:13:36.528Z,1021.12
2023-04-17T10:14:36.483Z,1021.15
2023-04-17T10:15:36.441Z,1021.16
2023-04-17T10:16:36.528Z,1021.13
2023-04-17T10:17:36.513Z,1021.13
2023-04-17T10:18:36.465Z,1021.12
2023-04-17T10:19:36.467Z,1021.11
2023-04-17T10:20:36.466Z,1021.12
2023-04-17T10:21:36.483Z,1021.11
2023-04-17T10:22:36.510Z,1021.09
2023-04-17T10:24:36.478Z,1021.09
2023-04-17T10:25:36.448Z,1021.08
2023-04-17T10:26:36.577Z,1021.09
2023-04-17T10:27:37.564Z,1021.14
2023-04-17T10:28:36.477Z,1021.15
2023-04-17T10:29:36.529Z,1021.13
2023-04-17T10:30:36.454Z,1021.13
2023-04-17T10:31:36.502Z,1021.14
2023-04-17T10:33:36.538Z,1021.11
2023-04-17T10:34:36.478Z,1021.12
2023-04-17T10:36:36.484Z,1021.08
2023-04-17T10:37:36.555Z,1021.12
2023-04-17T10:38:36.601Z,1021.13
2023-04-17T10:39:36.508Z,1021.08
2023-04-17T10:40:36.454Z,1021.09
2023-04-17T10:41:36.506Z,1021.05
2023-04-17T10:42:36.545Z,1021.03
2023-04-17T10:43:36.550Z,1021.00
2023-04-17T10:44:36.583Z,1020.98
2023-04-17T10:45:36.489Z,1020.99
2023-04-17T10:46:36.549Z,1020.97
2023-04-17T10:47:36.496Z,1020.97
2023-04-17T10:48:36.720Z,1020.94
2023-04-17T10:49:36.453Z,1020.93
2023-04-17T10:50:36.547Z,1020.92
2023-04-17T10:51:36.507Z,1020.92
2023-04-17T10:52:36.546Z,1020.94
2023-04-17T10:53:36.515Z,1020.92
2023-04-17T10:54:36.509Z,1020.95
2023-04-17T10:55:36.484Z,1020.93
2023-04-17T10:56:36.515Z,1020.92
2023-04-17T10:57:36.478Z,1020.91
2023-04-17T10:58:36.582Z,1020.88
2023-04-17T10:59:36.595Z,1020.90
2023-04-17T11:00:36.509Z,1020.86
2023-04-17T11:01:36.601Z,1020.87
2023-04-17T11:02:36.519Z,1020.85
2023-04-17T11:03:37.128Z,1020.87
2023-04-17T11:04:37.621Z,1020.89
2023-04-17T11:05:36.553Z,1020.84
2023-04-17T11:06:36.584Z,1020.87
2023-04-17T11:07:36.484Z,1020.83
2023-04-17T11:08:36.489Z,1020.82
2023-04-17T11:09:36.515Z,1020.81
2023-04-17T11:10:36.502Z,1020.77
2023-04-17T11:11:43.969Z,1020.76
2023-04-17T11:12:36.510Z,1020.80
2023-04-17T11:13:36.511Z,1020.75
2023-04-17T11:14:36.531Z,1020.75
2023-04-17T11:15:37.552Z,1020.70
2023-04-17T11:16:36.654Z,1020.68
2023-04-17T11:17:36.668Z,1020.72
2023-04-17T11:18:36.534Z,1020.72
2023-04-17T11:19:36.637Z,1020.71
2023-04-17T11:20:36.534Z,1020.73
2023-04-17T11:21:36.570Z,1020.73
2023-04-17T11:22:36.586Z,1020.74
2023-04-17T11:23:36.516Z,1020.72
2023-04-17T11:24:37.204Z,1020.73
2023-04-17T11:25:36.644Z,1020.72
2023-04-17T11:26:36.539Z,1020.73
2023-04-17T11:27:36.554Z,1020.70
2023-04-17T11:28:36.510Z,1020.76
2023-04-17T11:29:36.532Z,1020.76
2023-04-17T11:30:36.544Z,1020.75
2023-04-17T11:31:36.596Z,1020.71
2023-04-17T11:32:36.579Z,1020.73
2023-04-17T11:33:36.552Z,1020.71
2023-04-17T11:34:36.538Z,1020.70
2023-04-17T11:35:36.576Z,1020.70
2023-04-17T11:36:36.556Z,1020.67
2023-04-17T11:37:37.296Z,1020.66
2023-04-17T11:38:36.558Z,1020.67
2023-04-17T11:39:36.556Z,1020.68
2023-04-17T11:40:36.600Z,1020.72
2023-04-17T11:41:36.568Z,1020.69
2023-04-17T11:42:36.589Z,1020.66
2023-04-17T11:43:36.592Z,1020.66
2023-04-17T11:44:36.558Z,1020.64
2023-04-17T11:45:37.296Z,1020.67
2023-04-17T11:46:36.616Z,1020.65
2023-04-17T11:47:36.607Z,1020.62
2023-04-17T11:48:36.615Z,1020.65
2023-04-17T11:49:36.592Z,1020.66
2023-04-17T11:50:36.585Z,1020.67
2023-04-17T11:51:36.633Z,1020.66
2023-04-17T11:52:36.584Z,1020.59
2023-04-17T11:53:36.599Z,1020.63
2023-04-17T11:54:36.603Z,1020.64
2023-04-17T11:55:36.598Z,1020.64
2023-04-17T11:56:36.606Z,1020.61
2023-04-17T11:57:36.600Z,1020.65
2023-04-17T11:58:36.623Z,1020.63
2023-04-17T11:59:36.609Z,1020.56
2023-04-17T12:00:36.625Z,1020.57
2023-04-17T12:01:36.650Z,1020.61
2023-04-17T12:02:36.762Z,1020.62
2023-04-17T12:03:36.981Z,1020.62
2023-04-17T12:04:36.938Z,1020.61
2023-04-17T12:05:36.703Z,1020.60
2023-04-17T12:06:36.675Z,1020.63
2023-04-17T12:07:36.672Z,1020.62
2023-04-17T12:08:36.683Z,1020.61
2023-04-17T12:09:36.797Z,1020.58
2023-04-17T12:10:36.694Z,1020.64
2023-04-17T12:11:36.720Z,1020.64
2023-04-17T12:12:36.665Z,1020.61
2023-04-17T12:13:36.677Z,1020.62
2023-04-17T12:14:36.690Z,1020.63
2023-04-17T12:15:36.680Z,1020.59
2023-04-17T12:16:36.756Z,1020.58
2023-04-17T12:17:36.683Z,1020.60
2023-04-17T12:18:36.686Z,1020.60
2023-04-17T12:19:36.694Z,1020.62
2023-04-17T12:20:36.688Z,1020.62
2023-04-17T12:21:36.707Z,1020.60
2023-04-17T12:22:36.702Z,1020.61
2023-04-17T12:23:36.690Z,1020.62
2023-04-17T12:24:36.694Z,1020.55
2023-04-17T12:25:36.687Z,1020.57
2023-04-17T12:26:36.728Z,1020.59
2023-04-17T12:27:36.696Z,1020.53
2023-04-17T12:28:36.706Z,1020.58
2023-04-17T12:30:36.705Z,1020.54
2023-04-17T12:31:36.787Z,1020.54
2023-04-17T12:32:36.826Z,1020.48
2023-04-17T12:33:36.725Z,1020.51
2023-04-17T12:34:36.754Z,1020.53
2023-04-17T12:35:36.721Z,1020.52
2023-04-17T12:36:36.739Z,1020.55
2023-04-17T12:37:36.774Z,1020.49
2023-04-17T12:38:36.761Z,1020.53
2023-04-17T12:39:36.830Z,1020.55
2023-04-17T12:40:36.733Z,1020.57
2023-04-17T12:41:36.725Z,1020.57
2023-04-17T12:42:48.240Z,1020.55
2023-04-17T12:43:36.736Z,1020.61
2023-04-17T12:44:36.745Z,1020.56
2023-04-17T12:45:36.818Z,1020.57
2023-04-17T12:46:36.737Z,1020.57
2023-04-17T12:47:36.765Z,1020.55
2023-04-17T12:48:36.744Z,1020.49
2023-04-17T12:49:36.747Z,1020.51
2023-04-17T12:50:36.762Z,1020.47
2023-04-17T12:51:36.743Z,1020.49
2023-04-17T12:52:36.758Z,1020.45
2023-04-17T12:53:36.767Z,1020.48
2023-04-17T12:54:36.823Z,1020.47
2023-04-17T12:55:36.770Z,1020.41
2023-04-17T12:56:36.787Z,1020.41
2023-04-17T12:57:36.830Z,1020.40
2023-04-17T12:58:36.787Z,1020.43
2023-04-17T12:59:36.801Z,1020.39
2023-04-17T13:00:36.793Z,1020.41
2023-04-17T13:01:36.983Z,1020.38
2023-04-17T13:02:36.908Z,1020.37
2023-04-17T13:03:37.071Z,1020.39
2023-04-17T13:04:36.916Z,1020.34
2023-04-17T13:05:36.823Z,1020.41
2023-04-17T13:06:36.828Z,1020.39
2023-04-17T13:07:36.851Z,1020.40
2023-04-17T13:08:36.880Z,1020.38
2023-04-17T13:09:36.839Z,1020.39
2023-04-17T13:10:36.860Z,1020.36
2023-04-17T13:11:36.823Z,1020.37
2023-04-17T13:12:36.854Z,1020.36
2023-04-17T13:13:36.840Z,1020.40
2023-04-17T13:14:36.878Z,1020.37
2023-04-17T13:15:36.836Z,1020.39
2023-04-17T13:16:36.952Z,1020.39
2023-04-17T13:17:36.845Z,1020.37
2023-04-17T13:18:36.833Z,1020.37
2023-04-17T13:19:36.865Z,1020.33
2023-04-17T13:20:36.852Z,1020.35
2023-04-17T13:21:36.851Z,1020.37
2023-04-17T13:22:36.849Z,1020.36
2023-04-17T13:23:36.871Z,1020.32
2023-04-17T13:24:36.897Z,1020.31
2023-04-17T13:25:36.883Z,1020.31
2023-04-17T13:27:36.861Z,1020.29
2023-04-17T13:28:36.888Z,1020.28
2023-04-17T13:29:36.879Z,1020.28
2023-04-17T13:30:36.975Z,1020.25
2023-04-17T13:31:36.978Z,1020.28
2023-04-17T13:32:36.942Z,1020.25
2023-04-17T13:33:36.877Z,1020.25
2023-04-17T13:34:36.957Z,1020.27
2023-04-17T13:35:36.919Z,1020.27
2023-04-17T13:36:36.888Z,1020.25
2023-04-17T13:37:36.919Z,1020.27
2023-04-17T13:38:36.911Z,1020.26
2023-04-17T13:39:36.911Z,1020.24
2023-04-17T13:40:36.932Z,1020.26
2023-04-17T13:41:36.939Z,1020.21
2023-04-17T13:42:36.911Z,1020.24
2023-04-17T13:43:36.920Z,1020.21
2023-04-17T13:44:36.947Z,1020.17
2023-04-17T13:45:36.948Z,1020.21
2023-04-17T13:46:36.975Z,1020.13
2023-04-17T13:47:36.965Z,1020.15
2023-04-17T13:48:37.015Z,1020.14
2023-04-17T13:49:36.922Z,1020.09
2023-04-17T13:50:36.987Z,1020.11
2023-04-17T13:51:36.932Z,1020.09
2023-04-17T13:52:36.939Z,1019.99
2023-04-17T13:53:36.938Z,1020.02
2023-04-17T13:54:36.976Z,1019.99
2023-04-17T13:55:36.968Z,1019.95
2023-04-17T13:56:36.955Z,1019.96
2023-04-17T13:57:36.991Z,1019.97
2023-04-17T13:58:36.967Z,1019.92
2023-04-17T13:59:36.998Z,1019.95
2023-04-17T14:00:36.997Z,1019.92
2023-04-17T14:01:37.016Z,1019.85
2023-04-17T14:02:37.309Z,1019.82
2023-04-17T14:03:39.753Z,1019.91
2023-04-17T14:04:37.145Z,1019.91
2023-04-17T14:06:36.996Z,1019.79
2023-04-17T14:07:37.000Z,1019.81
2023-04-17T14:08:37.032Z,1019.87
2023-04-17T14:09:37.044Z,1019.85
2023-04-17T14:10:37.022Z,1019.82
2023-04-17T14:11:37.037Z,1019.80
2023-04-17T14:12:37.019Z,1019.80
2023-04-17T14:13:37.154Z,1019.80
2023-04-17T14:14:37.069Z,1019.79
2023-04-17T14:15:37.103Z,1019.76
2023-04-17T14:16:37.068Z,1019.79
2023-04-17T14:17:37.052Z,1019.76
2023-04-17T14:18:37.052Z,1019.75
2023-04-17T14:19:37.062Z,1019.76
2023-04-17T14:20:37.066Z,1019.74
2023-04-17T14:21:37.072Z,1019.77
2023-04-17T14:22:37.075Z,1019.76
2023-04-17T14:23:37.088Z,1019.75
2023-04-17T14:24:37.090Z,1019.76
2023-04-17T14:25:37.128Z,1019.76
2023-04-17T14:26:37.100Z,1019.74
2023-04-17T14:27:37.113Z,1019.70
2023-04-17T14:28:37.132Z,1019.70
2023-04-17T14:29:37.156Z,1019.69
2023-04-17T14:30:37.128Z,1019.64
2023-04-17T14:31:37.126Z,1019.67
2023-04-17T14:32:37.178Z,1019.68
2023-04-17T14:33:37.126Z,1019.63
2023-04-17T14:34:37.140Z,1019.58
2023-04-17T14:35:37.161Z,1019.59
2023-04-17T14:36:37.135Z,1019.58
2023-04-17T14:37:37.158Z,1019.61
2023-04-17T14:38:37.150Z,1019.58
2023-04-17T14:39:37.150Z,1019.55
2023-04-17T14:40:37.170Z,1019.52
2023-04-17T14:41:37.219Z,1019.55
2023-04-17T14:42:47.470Z,1019.53
2023-04-17T14:43:37.169Z,1019.50
2023-04-17T14:44:37.179Z,1019.48
2023-04-17T14:45:37.318Z,1019.46
2023-04-17T14:46:37.278Z,1019.44
2023-04-17T14:47:37.209Z,1019.48
2023-04-17T14:48:48.126Z,1019.48
2023-04-17T14:49:37.199Z,1019.50
2023-04-17T14:50:37.213Z,1019.47
2023-04-17T14:51:37.224Z,1019.45
2023-04-17T14:52:37.232Z,1019.48
2023-04-17T14:53:37.220Z,1019.47
2023-04-17T14:54:37.253Z,1019.49
2023-04-17T14:55:37.258Z,1019.54
2023-04-17T14:56:37.238Z,1019.51
2023-04-17T14:57:37.262Z,1019.50
2023-04-17T14:58:37.261Z,1019.52
2023-04-17T14:59:37.263Z,1019.50
2023-04-17T15:00:37.268Z,1019.52
2023-04-17T15:01:37.309Z,1019.48
2023-04-17T15:02:37.387Z,1019.49
2023-04-17T15:03:37.493Z,1019.46
2023-04-17T15:04:37.316Z,1019.50
2023-04-17T15:05:38.021Z,1019.50
2023-04-17T15:06:37.285Z,1019.43
2023-04-17T15:07:37.269Z,1019.46
2023-04-17T15:08:37.274Z,1019.44
2023-04-17T15:09:37.275Z,1019.45
2023-04-17T15:10:47.850Z,1019.46
2023-04-17T15:11:37.274Z,1019.44
2023-04-17T15:12:37.270Z,1019.43
2023-04-17T15:13:37.274Z,1019.43
2023-04-17T15:14:37.277Z,1019.47
2023-04-17T15:15:37.315Z,1019.49
2023-04-17T15:16:37.322Z,1019.47
2023-04-17T15:17:37.448Z,1019.48
2023-04-17T15:18:37.314Z,1019.48
2023-04-17T15:19:37.296Z,1019.42
2023-04-17T15:20:37.306Z,1019.41
2023-04-17T15:21:37.298Z,1019.37
2023-04-17T15:22:37.339Z,1019.40
2023-04-17T15:23:37.319Z,1019.39
2023-04-17T15:24:37.322Z,1019.44
2023-04-17T15:25:37.318Z,1019.41
2023-04-17T15:26:37.313Z,1019.42
2023-04-17T15:27:37.355Z,1019.42
2023-04-17T15:28:37.305Z,1019.43
2023-04-17T15:29:37.308Z,1019.42
2023-04-17T15:30:37.315Z,1019.41
2023-04-17T15:31:37.362Z,1019.41
2023-04-17T15:32:37.407Z,1019.47
2023-04-17T15:33:37.368Z,1019.42
2023-04-17T15:34:37.382Z,1019.50
2023-04-17T15:35:37.383Z,1019.47
2023-04-17T15:36:37.403Z,1019.48
2023-04-17T15:37:37.327Z,1019.47
2023-04-17T15:38:37.341Z,1019.43
2023-04-17T15:39:37.352Z,1019.46
2023-04-17T15:40:37.400Z,1019.43
2023-04-17T15:41:37.382Z,1019.44
2023-04-17T15:42:37.366Z,1019.46
2023-04-17T15:43:37.336Z,1019.39
2023-04-17T15:44:37.349Z,1019.43
2023-04-17T15:45:37.361Z,1019.44
2023-04-17T15:46:37.423Z,1019.43
2023-04-17T15:47:37.363Z,1019.42
2023-04-17T15:48:37.343Z,1019.46
2023-04-17T15:49:37.448Z,1019.43
2023-04-17T15:50:37.349Z,1019.47
2023-04-17T15:51:39.523Z,1019.43
2023-04-17T15:52:37.326Z,1019.40
2023-04-17T15:53:37.337Z,1019.43
2023-04-17T15:54:37.342Z,1019.39
2023-04-17T15:55:37.382Z,1019.43
2023-04-17T15:56:37.325Z,1019.42
2023-04-17T15:57:37.406Z,1019.38
2023-04-17T15:58:37.372Z,1019.40
2023-04-17T15:59:37.317Z,1019.41
2023-04-17T16:00:37.345Z,1019.40
2023-04-17T16:14:21.496Z,1019.28
2023-04-17T16:15:19.755Z,1019.27
2023-04-17T16:16:19.777Z,1019.32
2023-04-17T16:17:19.795Z,1019.28
2023-04-17T16:18:19.764Z,1019.30
2023-04-17T16:19:19.778Z,1019.29
2023-04-17T16:20:19.753Z,1019.29
2023-04-17T16:21:19.768Z,1019.33
2023-04-17T16:22:19.753Z,1019.27
2023-04-17T16:23:19.735Z,1019.33
2023-04-17T16:24:19.754Z,1019.33
2023-04-17T16:25:20.850Z,1019.33
2023-04-17T16:26:19.738Z,1019.35
2023-04-17T16:27:19.755Z,1019.32
2023-04-17T16:28:19.725Z,1019.35
2023-04-17T16:29:19.748Z,1019.41
2023-04-17T16:30:19.832Z,1019.40
2023-04-17T16:31:19.788Z,1019.38
2023-04-17T16:32:19.784Z,1019.38
2023-04-17T16:33:19.708Z,1019.34
2023-04-17T16:34:19.725Z,1019.39
2023-04-17T16:35:19.727Z,1019.37
2023-04-17T16:36:19.715Z,1019.35
2023-04-17T16:37:19.723Z,1019.40
2023-04-17T16:38:19.716Z,1019.40
2023-04-17T16:39:19.714Z,1019.36
2023-04-17T16:40:19.732Z,1019.38
2023-04-17T16:41:19.717Z,1019.37
2023-04-17T16:42:19.702Z,1019.38